Time;durP1;ratioP1;P1;durP2;ratioP2;P2;SDS_P1;SDS_P2;PMS_P1;PMS_P2;Temp;Humidity;BMP_temperature;BMP_pressure;BME280_temperature;BME280_humidity;BME280_pressure;Samples;Min_cycle;Max_cycle;Signal;HPM_P1;HPM_P2
2023/06/14 00:00:34;;;;;;;;;;;14.40;95.20;;;;;;5012333;28;19941;-64
2023/06/14 00:03:03;;;;;;;;;;;14.50;95.30;;;;;;5015740;28;19953;-63
2023/06/14 00:05:33;;;;;;;;;;;14.60;94.80;;;;;;5012275;28;20330;-66
2023/06/14 00:08:00;;;;;;;;;;;14.60;94.70;;;;;;5017414;28;19914;-65
2023/06/14 00:10:30;;;;;;;;;;;14.70;94.60;;;;;;5013399;28;19933;-66
2023/06/14 00:12:57;;;;;;;;;;;14.80;94.60;;;;;;5013311;28;19909;-65
2023/06/14 00:15:24;;;;;;;;;;;14.90;93.70;;;;;;5012154;28;19982;-66
2023/06/14 00:17:50;;;;;;;;;;;14.90;93.90;;;;;;5015155;28;19940;-67
2023/06/14 00:20:17;;;;;;;;;;;14.90;93.80;;;;;;5012936;28;20235;-66
2023/06/14 00:22:45;;;;;;;;;;;15.00;93.80;;;;;;5013436;28;19989;-66
2023/06/14 00:25:11;;;;;;;;;;;15.00;93.90;;;;;;5013168;28;19916;-65
2023/06/14 00:27:38;;;;;;;;;;;15.10;93.40;;;;;;5021824;28;20000;-63
2023/06/14 00:30:05;;;;;;;;;;;15.10;93.60;;;;;;5016342;28;19913;-64
2023/06/14 00:32:32;;;;;;;;;;;15.20;92.90;;;;;;5012448;28;20003;-66
2023/06/14 00:34:58;;;;;;;;;;;15.30;93.00;;;;;;5012581;28;20426;-64
2023/06/14 00:37:25;;;;;;;;;;;15.30;93.00;;;;;;5012942;28;19967;-65
2023/06/14 00:39:51;;;;;;;;;;;15.40;93.20;;;;;;5012692;28;20313;-64
2023/06/14 00:42:25;;;;;;;;;;;15.50;92.10;;;;;;5013054;28;19963;-66
2023/06/14 00:44:52;;;;;;;;;;;15.50;92.10;;;;;;5011257;28;20406;-67
2023/06/14 00:47:19;;;;;;;;;;;15.60;91.90;;;;;;5011146;28;20283;-67
2023/06/14 00:49:50;;;;;;;;;;;15.60;91.70;;;;;;5012627;28;19921;-66
2023/06/14 00:52:18;;;;;;;;;;;15.70;91.90;;;;;;5012846;28;19916;-64
2023/06/14 00:54:44;;;;;;;;;;;15.70;92.10;;;;;;5012702;28;20008;-67
2023/06/14 00:57:12;;;;;;;;;;;15.80;91.60;;;;;;5017350;28;20362;-66
2023/06/14 00:59:42;;;;;;;;;;;15.80;91.00;;;;;;5031986;28;20378;-66
2023/06/14 01:02:09;;;;;;;;;;;15.90;90.90;;;;;;5021888;28;19972;-65
2023/06/14 01:04:36;;;;;;;;;;;16.00;91.10;;;;;;5012529;28;19916;-66
2023/06/14 01:07:14;;;;;;;;;;;16.00;90.30;;;;;;5027191;28;20012;-67
2023/06/14 01:10:00;;;;;;;;;;;16.00;90.70;;;;;;5011838;28;19941;-67
2023/06/14 01:12:30;;;;;;;;;;;16.10;90.40;;;;;;4953029;28;19913;-65
2023/06/14 01:14:57;;;;;;;;;;;16.10;89.60;;;;;;5012594;28;19917;-63
2023/06/14 01:17:25;;;;;;;;;;;16.20;89.30;;;;;;5019168;28;19909;-63
2023/06/14 01:19:57;;;;;;;;;;;16.20;87.40;;;;;;5015227;28;19925;-65
2023/06/14 01:22:27;;;;;;;;;;;16.30;87.70;;;;;;5001467;28;19910;-66
2023/06/14 01:24:55;;;;;;;;;;;16.40;87.80;;;;;;5002678;28;19917;-65
2023/06/14 01:27:28;;;;;;;;;;;16.50;87.10;;;;;;5004263;28;20008;-65
2023/06/14 01:29:59;;;;;;;;;;;16.60;87.60;;;;;;5002487;28;19913;-66
2023/06/14 01:32:27;;;;;;;;;;;16.70;85.40;;;;;;5011464;28;19910;-63
2023/06/14 01:34:54;;;;;;;;;;;16.70;84.80;;;;;;5001285;28;19917;-65
2023/06/14 01:37:21;;;;;;;;;;;16.70;83.20;;;;;;5005531;28;19913;-66
2023/06/14 01:39:49;;;;;;;;;;;16.90;83.80;;;;;;5002948;28;20330;-67
2023/06/14 01:42:16;;;;;;;;;;;17.00;84.00;;;;;;5013377;28;20370;-64
2023/06/14 01:44:45;;;;;;;;;;;17.10;82.70;;;;;;5014837;28;19917;-66
2023/06/14 01:47:12;;;;;;;;;;;17.10;81.80;;;;;;5020857;28;19927;-67
2023/06/14 01:49:39;;;;;;;;;;;17.10;80.70;;;;;;5026601;28;19967;-65
2023/06/14 01:52:09;;;;;;;;;;;17.20;80.30;;;;;;5014919;28;19949;-67
2023/06/14 01:54:41;;;;;;;;;;;17.20;79.80;;;;;;5012665;28;19948;-66
2023/06/14 01:57:08;;;;;;;;;;;17.20;80.30;;;;;;5014541;28;20386;-67
2023/06/14 01:59:35;;;;;;;;;;;17.30;79.80;;;;;;5012389;28;19936;-66
2023/06/14 02:02:03;;;;;;;;;;;17.30;79.70;;;;;;5015468;28;19956;-65
2023/06/14 02:04:29;;;;;;;;;;;17.30;79.00;;;;;;5014502;28;19920;-65
2023/06/14 02:06:56;;;;;;;;;;;17.40;79.50;;;;;;5014078;28;19964;-66
2023/06/14 02:09:23;;;;;;;;;;;17.30;78.50;;;;;;5004897;28;20332;-67
2023/06/14 02:11:50;;;;;;;;;;;17.30;78.60;;;;;;5006254;28;19967;-65
2023/06/14 02:14:17;;;;;;;;;;;17.20;77.00;;;;;;5012790;28;20341;-64
2023/06/14 02:16:48;;;;;;;;;;;17.30;77.00;;;;;;5016391;28;19967;-66
2023/06/14 02:19:16;;;;;;;;;;;17.40;76.40;;;;;;5011474;28;19917;-64
2023/06/14 02:21:43;;;;;;;;;;;17.30;77.60;;;;;;5013967;28;19917;-66
2023/06/14 02:24:09;;;;;;;;;;;17.30;77.40;;;;;;5014546;28;20386;-64
2023/06/14 02:26:41;;;;;;;;;;;17.30;77.10;;;;;;5015153;28;20051;-65
2023/06/14 02:29:12;;;;;;;;;;;17.50;76.10;;;;;;5014596;28;19910;-66
2023/06/14 02:31:39;;;;;;;;;;;17.70;76.10;;;;;;5013767;28;19914;-65
2023/06/14 02:34:05;;;;;;;;;;;17.80;75.90;;;;;;5015247;28;19968;-65
2023/06/14 02:36:32;;;;;;;;;;;17.70;75.70;;;;;;5014108;28;21645;-66
2023/06/14 02:38:58;;;;;;;;;;;17.70;76.40;;;;;;5015088;28;19945;-67
2023/06/14 02:41:25;;;;;;;;;;;17.70;75.90;;;;;;5014636;28;19918;-64
2023/06/14 02:43:53;;;;;;;;;;;17.80;75.80;;;;;;5014509;28;19919;-65
2023/06/14 02:46:19;;;;;;;;;;;17.80;75.80;;;;;;5014590;28;20363;-65
2023/06/14 02:48:46;;;;;;;;;;;17.80;75.90;;;;;;5021518;28;20477;-63
2023/06/14 02:51:13;;;;;;;;;;;18.00;75.80;;;;;;5011185;28;19918;-68
2023/06/14 02:53:40;;;;;;;;;;;18.30;76.40;;;;;;5014457;28;20016;-65
2023/06/14 02:56:07;;;;;;;;;;;18.60;74.00;;;;;;5014920;28;19909;-66
2023/06/14 02:58:33;;;;;;;;;;;19.20;74.50;;;;;;5031041;28;20471;-65
2023/06/14 03:01:02;;;;;;;;;;;19.60;73.40;;;;;;5019229;28;19917;-65
2023/06/14 03:03:29;;;;;;;;;;;20.20;72.20;;;;;;5014231;28;19920;-67
2023/06/14 03:05:56;;;;;;;;;;;20.70;70.10;;;;;;5014545;28;19922;-63
2023/06/14 03:08:27;;;;;;;;;;;20.80;68.70;;;;;;5015012;28;19917;-64
2023/06/14 03:10:55;;;;;;;;;;;20.70;68.90;;;;;;5013228;28;19920;-65
2023/06/14 03:13:23;;;;;;;;;;;20.50;69.40;;;;;;5013725;28;19945;-63
2023/06/14 03:15:52;;;;;;;;;;;20.10;68.10;;;;;;5013591;28;20251;-65
2023/06/14 03:18:19;;;;;;;;;;;20.10;67.60;;;;;;5028052;28;19909;-66
2023/06/14 03:20:45;;;;;;;;;;;20.30;68.40;;;;;;5015631;28;20329;-67
2023/06/14 03:23:12;;;;;;;;;;;20.50;67.60;;;;;;5013630;28;20327;-68
2023/06/14 03:25:41;;;;;;;;;;;21.40;67.20;;;;;;5014383;28;19914;-65
2023/06/14 03:28:08;;;;;;;;;;;22.20;64.80;;;;;;5017032;28;20385;-64
2023/06/14 03:30:35;;;;;;;;;;;22.60;63.90;;;;;;5013754;28;19963;-64
2023/06/14 03:33:01;;;;;;;;;;;22.90;62.30;;;;;;5013585;28;19967;-64
2023/06/14 03:35:28;;;;;;;;;;;23.60;61.40;;;;;;5013654;28;19916;-65
2023/06/14 03:37:55;;;;;;;;;;;24.60;59.30;;;;;;5015214;28;19920;-64
2023/06/14 03:40:22;;;;;;;;;;;26.10;59.10;;;;;;5013767;28;20392;-64
2023/06/14 03:42:48;;;;;;;;;;;27.30;56.00;;;;;;5012958;28;19913;-66
2023/06/14 03:45:15;;;;;;;;;;;28.30;54.40;;;;;;5014127;28;19913;-64
2023/06/14 03:47:41;;;;;;;;;;;28.80;52.70;;;;;;5023536;28;19917;-65
2023/06/14 03:50:08;;;;;;;;;;;28.70;51.80;;;;;;5033382;28;19921;-65
2023/06/14 03:52:35;;;;;;;;;;;28.60;51.80;;;;;;5018624;28;19914;-64
2023/06/14 03:55:02;;;;;;;;;;;28.70;51.30;;;;;;5028277;28;19956;-65
2023/06/14 03:57:30;;;;;;;;;;;28.80;51.20;;;;;;5017046;28;20326;-64
2023/06/14 03:59:57;;;;;;;;;;;28.80;50.40;;;;;;5012831;28;19909;-65
2023/06/14 04:02:23;;;;;;;;;;;28.50;50.30;;;;;;5013392;28;20012;-65
2023/06/14 04:04:51;;;;;;;;;;;28.70;51.00;;;;;;5011855;28;20020;-63
2023/06/14 04:07:20;;;;;;;;;;;28.10;51.10;;;;;;5019208;28;19940;-65
2023/06/14 04:09:47;;;;;;;;;;;26.90;52.10;;;;;;5028382;28;20379;-65
2023/06/14 04:12:14;;;;;;;;;;;25.60;52.30;;;;;;5013571;28;19914;-65
2023/06/14 04:14:41;;;;;;;;;;;24.30;52.70;;;;;;5017369;28;19910;-64
2023/06/14 04:17:07;;;;;;;;;;;22.90;54.80;;;;;;5017592;28;19909;-65
2023/06/14 04:19:34;;;;;;;;;;;21.90;55.50;;;;;;5033113;28;19909;-63
2023/06/14 04:22:02;;;;;;;;;;;21.00;56.40;;;;;;5033020;28;19913;-64
2023/06/14 04:24:34;;;;;;;;;;;20.30;57.60;;;;;;5016160;28;19955;-64
2023/06/14 04:27:01;;;;;;;;;;;19.80;58.00;;;;;;5016653;28;19917;-63
2023/06/14 04:29:29;;;;;;;;;;;19.50;58.70;;;;;;5016642;28;19967;-63
2023/06/14 04:31:58;;;;;;;;;;;19.30;58.00;;;;;;5012763;28;20362;-63
2023/06/14 04:34:33;;;;;;;;;;;19.10;59.90;;;;;;5012088;28;20314;-62
2023/06/14 04:37:01;;;;;;;;;;;18.90;60.00;;;;;;5016596;28;19909;-64
2023/06/14 04:39:28;;;;;;;;;;;19.00;60.20;;;;;;5032560;28;19916;-64
2023/06/14 04:41:56;;;;;;;;;;;18.90;59.70;;;;;;5033074;28;19909;-65
2023/06/14 04:44:29;;;;;;;;;;;18.80;58.80;;;;;;5032219;28;19909;-64
2023/06/14 04:46:58;;;;;;;;;;;18.70;58.70;;;;;;5024788;28;19921;-63
2023/06/14 04:49:27;;;;;;;;;;;18.70;58.90;;;;;;5032487;28;19964;-63
2023/06/14 04:52:02;;;;;;;;;;;18.70;59.20;;;;;;5032562;28;19913;-64
2023/06/14 04:54:31;;;;;;;;;;;18.80;59.20;;;;;;5032097;28;20008;-64
2023/06/14 04:56:58;;;;;;;;;;;18.80;60.30;;;;;;5023691;28;20282;-64
2023/06/14 04:59:24;;;;;;;;;;;18.80;59.30;;;;;;5016779;28;19920;-65
2023/06/14 05:01:51;;;;;;;;;;;18.90;59.80;;;;;;5012518;28;19916;-66
2023/06/14 05:04:18;;;;;;;;;;;18.90;60.10;;;;;;5012659;28;19949;-63
2023/06/14 05:06:45;;;;;;;;;;;19.00;60.20;;;;;;5013061;28;19976;-63
2023/06/14 05:09:12;;;;;;;;;;;19.00;60.20;;;;;;5014692;28;20370;-64
2023/06/14 05:11:39;;;;;;;;;;;19.00;60.00;;;;;;5011502;28;19914;-63
2023/06/14 05:14:06;;;;;;;;;;;19.10;59.50;;;;;;5012446;28;19909;-63
2023/06/14 05:16:33;;;;;;;;;;;19.10;59.60;;;;;;5011379;28;19956;-65
2023/06/14 05:19:01;;;;;;;;;;;19.10;60.50;;;;;;5031774;28;19909;-65
2023/06/14 05:21:27;;;;;;;;;;;19.10;60.20;;;;;;5013374;28;19964;-63
2023/06/14 05:23:55;;;;;;;;;;;18.90;60.30;;;;;;5010992;28;20326;-66
2023/06/14 05:26:28;;;;;;;;;;;18.90;62.00;;;;;;5010607;28;19921;-65
2023/06/14 05:29:00;;;;;;;;;;;19.00;60.80;;;;;;5012987;28;19992;-64
2023/06/14 05:31:26;;;;;;;;;;;19.00;59.70;;;;;;5012125;28;19917;-66
2023/06/14 05:33:53;;;;;;;;;;;18.90;59.00;;;;;;4994756;28;19921;-67
2023/06/14 05:36:23;;;;;;;;;;;19.00;59.80;;;;;;5005749;28;19941;-65
2023/06/14 05:38:51;;;;;;;;;;;19.10;59.20;;;;;;5009168;28;19910;-65
2023/06/14 05:41:18;;;;;;;;;;;19.30;59.90;;;;;;5004803;28;19971;-66
2023/06/14 05:43:45;;;;;;;;;;;19.60;59.00;;;;;;5008416;28;19921;-66
2023/06/14 05:46:11;;;;;;;;;;;19.60;58.60;;;;;;5008744;28;19971;-66
2023/06/14 05:48:38;;;;;;;;;;;19.60;59.60;;;;;;5009307;28;20428;-65
2023/06/14 05:51:08;;;;;;;;;;;19.60;59.60;;;;;;5010298;28;19917;-65
2023/06/14 05:53:35;;;;;;;;;;;19.50;60.10;;;;;;5007612;28;20401;-66
2023/06/14 05:56:01;;;;;;;;;;;19.50;61.20;;;;;;5009509;28;19914;-64
2023/06/14 05:58:32;;;;;;;;;;;19.70;62.10;;;;;;5007702;28;20117;-67
2023/06/14 06:00:58;;;;;;;;;;;20.00;60.10;;;;;;5010492;28;19940;-65
2023/06/14 06:03:29;;;;;;;;;;;20.20;59.10;;;;;;5013734;28;19987;-64
2023/06/14 06:05:55;;;;;;;;;;;20.70;59.60;;;;;;5011560;28;19924;-65
2023/06/14 06:08:22;;;;;;;;;;;21.10;58.20;;;;;;5009502;28;20009;-65
2023/06/14 06:10:49;;;;;;;;;;;21.20;57.40;;;;;;5009648;28;20457;-67
2023/06/14 06:13:16;;;;;;;;;;;21.00;58.40;;;;;;5010459;28;19918;-65
2023/06/14 06:15:42;;;;;;;;;;;20.60;58.30;;;;;;5009681;28;19917;-68
2023/06/14 06:18:09;;;;;;;;;;;20.00;60.30;;;;;;5010788;28;19909;-67
2023/06/14 06:20:36;;;;;;;;;;;19.40;59.10;;;;;;5009198;28;20008;-67
2023/06/14 06:23:03;;;;;;;;;;;19.10;61.30;;;;;;5009297;28;20327;-68
2023/06/14 06:25:31;;;;;;;;;;;18.80;61.70;;;;;;5011409;28;20383;-66
2023/06/14 06:27:58;;;;;;;;;;;18.50;63.10;;;;;;5011832;28;20177;-67
2023/06/14 06:30:25;;;;;;;;;;;18.10;62.70;;;;;;5009372;28;19913;-65
2023/06/14 06:32:53;;;;;;;;;;;17.80;63.20;;;;;;5010533;28;19913;-63
2023/06/14 06:35:19;;;;;;;;;;;17.60;64.60;;;;;;5015995;28;19921;-64
2023/06/14 06:37:46;;;;;;;;;;;17.40;65.90;;;;;;5012199;28;20279;-66
2023/06/14 06:40:13;;;;;;;;;;;17.10;63.90;;;;;;5013519;28;19910;-68
2023/06/14 06:42:39;;;;;;;;;;;16.90;64.50;;;;;;5014590;28;19909;-68
2023/06/14 06:45:06;;;;;;;;;;;16.80;64.30;;;;;;5013488;28;19975;-66
2023/06/14 06:47:33;;;;;;;;;;;16.80;64.70;;;;;;4995540;28;19967;-65
2023/06/14 06:50:00;;;;;;;;;;;16.60;64.20;;;;;;5013936;28;19976;-66
2023/06/14 06:52:26;;;;;;;;;;;16.50;64.60;;;;;;5013782;28;19920;-63
2023/06/14 06:54:54;;;;;;;;;;;16.30;65.10;;;;;;5013279;28;19917;-61
2023/06/14 06:57:22;;;;;;;;;;;16.30;65.10;;;;;;5013965;28;19910;-66
2023/06/14 06:59:49;;;;;;;;;;;16.10;65.40;;;;;;5013612;28;20376;-68
2023/06/14 07:02:16;;;;;;;;;;;16.00;66.00;;;;;;5010526;28;20375;-67
2023/06/14 07:04:43;;;;;;;;;;;15.90;66.10;;;;;;5012180;28;19976;-67
2023/06/14 07:07:09;;;;;;;;;;;15.80;66.30;;;;;;5011560;28;20000;-66
2023/06/14 07:09:36;;;;;;;;;;;15.70;66.70;;;;;;5012816;28;20389;-66
2023/06/14 07:12:03;;;;;;;;;;;15.60;66.80;;;;;;5012123;28;19914;-67
2023/06/14 07:14:30;;;;;;;;;;;15.60;67.00;;;;;;5014231;28;19996;-66
2023/06/14 07:16:56;;;;;;;;;;;15.50;67.40;;;;;;5013860;28;19914;-67
2023/06/14 07:19:23;;;;;;;;;;;15.40;67.40;;;;;;5012547;28;20468;-65
2023/06/14 07:21:50;;;;;;;;;;;15.40;67.90;;;;;;5004144;28;19960;-65
2023/06/14 07:24:16;;;;;;;;;;;15.40;67.70;;;;;;5013871;28;20362;-64
2023/06/14 07:26:43;;;;;;;;;;;15.40;68.00;;;;;;5013697;28;19972;-66
2023/06/14 07:29:10;;;;;;;;;;;15.30;68.50;;;;;;5013529;28;19909;-67
2023/06/14 07:31:37;;;;;;;;;;;15.20;68.70;;;;;;5010778;28;19918;-68
2023/06/14 07:34:04;;;;;;;;;;;15.20;68.30;;;;;;5010734;28;19913;-66
2023/06/14 07:36:30;;;;;;;;;;;15.10;69.00;;;;;;5010487;28;19913;-65
2023/06/14 07:38:57;;;;;;;;;;;15.10;69.00;;;;;;5006281;28;19914;-65
2023/06/14 07:41:25;;;;;;;;;;;15.10;68.80;;;;;;5020316;28;19913;-64
2023/06/14 07:43:51;;;;;;;;;;;15.00;68.90;;;;;;5004598;28;19913;-63
2023/06/14 07:46:18;;;;;;;;;;;15.00;69.30;;;;;;5009297;28;20020;-65
2023/06/14 07:48:45;;;;;;;;;;;14.90;69.40;;;;;;5010372;28;19921;-66
2023/06/14 07:51:12;;;;;;;;;;;14.90;69.50;;;;;;5013160;28;20270;-65
2023/06/14 07:53:40;;;;;;;;;;;14.80;70.00;;;;;;5013925;28;19949;-65
2023/06/14 07:56:07;;;;;;;;;;;14.80;70.30;;;;;;5013573;28;19909;-65
2023/06/14 07:58:34;;;;;;;;;;;14.70;70.30;;;;;;5012652;28;19917;-65
2023/06/14 08:01:03;;;;;;;;;;;14.70;70.40;;;;;;5013114;28;20008;-65
2023/06/14 08:03:30;;;;;;;;;;;14.60;71.50;;;;;;5013309;28;20012;-65
2023/06/14 08:05:57;;;;;;;;;;;14.60;71.30;;;;;;5013832;28;19924;-65
2023/06/14 08:08:23;;;;;;;;;;;14.50;71.40;;;;;;5012739;28;19926;-65
2023/06/14 08:10:50;;;;;;;;;;;14.50;71.80;;;;;;5013290;28;20371;-65
2023/06/14 08:13:17;;;;;;;;;;;14.40;72.60;;;;;;5013610;28;19909;-65
2023/06/14 08:15:43;;;;;;;;;;;14.40;72.40;;;;;;5013440;28;20294;-65
2023/06/14 08:18:10;;;;;;;;;;;14.30;72.50;;;;;;5011934;28;19952;-66
2023/06/14 08:20:37;;;;;;;;;;;14.20;73.00;;;;;;5012211;28;20452;-66
2023/06/14 08:23:04;;;;;;;;;;;14.30;72.80;;;;;;5012969;28;19921;-64
2023/06/14 08:25:31;;;;;;;;;;;14.20;72.80;;;;;;5012235;28;19914;-66
2023/06/14 08:27:57;;;;;;;;;;;14.20;73.10;;;;;;5012844;28;19968;-66
2023/06/14 08:30:24;;;;;;;;;;;14.20;73.20;;;;;;5012603;28;19964;-66
2023/06/14 08:32:51;;;;;;;;;;;14.10;73.60;;;;;;5013239;28;19909;-66
2023/06/14 08:35:18;;;;;;;;;;;14.10;73.80;;;;;;5012964;28;19949;-66
2023/06/14 08:37:45;;;;;;;;;;;14.00;73.80;;;;;;5012602;28;19944;-66
2023/06/14 08:40:21;;;;;;;;;;;14.00;73.60;;;;;;5012430;28;19909;-65
2023/06/14 08:42:51;;;;;;;;;;;13.90;74.10;;;;;;5012010;28;19992;-64
2023/06/14 08:45:17;;;;;;;;;;;14.00;74.00;;;;;;5013120;28;19911;-64
2023/06/14 08:47:45;;;;;;;;;;;13.90;74.20;;;;;;5012693;28;20080;-64
2023/06/14 08:50:12;;;;;;;;;;;13.90;73.90;;;;;;5012227;28;20012;-64
2023/06/14 08:52:40;;;;;;;;;;;13.90;74.10;;;;;;5012164;28;20366;-65
2023/06/14 08:55:08;;;;;;;;;;;13.90;74.00;;;;;;5012772;28;20247;-66
2023/06/14 08:57:37;;;;;;;;;;;13.90;74.60;;;;;;5012312;28;19905;-65
2023/06/14 09:00:13;;;;;;;;;;;13.90;74.90;;;;;;5012152;28;19909;-66
2023/06/14 09:02:50;;;;;;;;;;;13.80;74.70;;;;;;5012329;28;19913;-65
2023/06/14 09:05:18;;;;;;;;;;;13.70;75.00;;;;;;5012033;28;19963;-66
2023/06/14 09:07:44;;;;;;;;;;;13.70;75.30;;;;;;5012046;28;19929;-64
2023/06/14 09:10:15;;;;;;;;;;;13.70;75.20;;;;;;5011601;28;19917;-67
2023/06/14 09:12:42;;;;;;;;;;;13.70;75.70;;;;;;5012392;28;19949;-66
2023/06/14 09:15:09;;;;;;;;;;;13.60;76.10;;;;;;5012619;28;19910;-66
2023/06/14 09:17:36;;;;;;;;;;;13.60;76.50;;;;;;5012040;28;19910;-65
2023/06/14 09:20:06;;;;;;;;;;;13.60;76.20;;;;;;5012081;28;20302;-63
2023/06/14 09:22:33;;;;;;;;;;;13.50;76.80;;;;;;5011963;28;19963;-63
2023/06/14 09:24:59;;;;;;;;;;;13.40;77.00;;;;;;5012185;28;19960;-64
2023/06/14 09:27:26;;;;;;;;;;;13.40;77.00;;;;;;5011423;28;20341;-66
2023/06/14 09:29:53;;;;;;;;;;;13.40;77.60;;;;;;5011786;28;19964;-64
2023/06/14 09:32:20;;;;;;;;;;;13.30;77.60;;;;;;5012176;28;19999;-64
2023/06/14 09:34:47;;;;;;;;;;;13.30;77.70;;;;;;5012404;28;20381;-65
2023/06/14 09:37:26;;;;;;;;;;;13.30;77.90;;;;;;5012108;28;19913;-63
2023/06/14 09:39:53;;;;;;;;;;;13.30;78.00;;;;;;5012242;28;20354;-64
2023/06/14 09:42:19;;;;;;;;;;;13.30;78.20;;;;;;5011588;28;19967;-63
2023/06/14 09:44:49;;;;;;;;;;;13.30;78.00;;;;;;5011690;28;20011;-63
2023/06/14 09:47:16;;;;;;;;;;;13.20;78.20;;;;;;5011851;28;19921;-64
2023/06/14 09:49:43;;;;;;;;;;;13.20;78.30;;;;;;5011545;28;20004;-63
2023/06/14 09:52:12;;;;;;;;;;;13.20;78.40;;;;;;5011662;28;19917;-65
2023/06/14 09:54:42;;;;;;;;;;;13.20;78.60;;;;;;5011892;28;20328;-64
2023/06/14 09:57:12;;;;;;;;;;;13.10;78.60;;;;;;5011263;28;19914;-66
2023/06/14 09:59:43;;;;;;;;;;;13.20;78.70;;;;;;5011722;28;19910;-62
2023/06/14 10:02:12;;;;;;;;;;;13.10;79.20;;;;;;5011904;28;20462;-66
2023/06/14 10:04:40;;;;;;;;;;;13.10;79.20;;;;;;5015672;28;19913;-62
2023/06/14 10:07:07;;;;;;;;;;;13.00;79.50;;;;;;5015315;28;19967;-65
2023/06/14 10:09:34;;;;;;;;;;;13.00;80.20;;;;;;5011672;28;20068;-66
2023/06/14 10:12:01;;;;;;;;;;;12.90;80.00;;;;;;5013324;28;19917;-65
2023/06/14 10:14:28;;;;;;;;;;;12.90;80.40;;;;;;5015879;28;19909;-64
2023/06/14 10:17:00;;;;;;;;;;;12.90;80.30;;;;;;5015136;28;19913;-64
2023/06/14 10:19:34;;;;;;;;;;;12.80;81.00;;;;;;5014799;28;19952;-62
2023/06/14 10:22:24;;;;;;;;;;;12.80;81.10;;;;;;5027415;28;20290;-63
2023/06/14 10:24:51;;;;;;;;;;;12.70;81.60;;;;;;5015853;28;19921;-64
2023/06/14 10:27:23;;;;;;;;;;;12.70;82.10;;;;;;5015129;28;19928;-64
2023/06/14 10:30:01;;;;;;;;;;;12.60;82.10;;;;;;5015656;28;19964;-62
2023/06/14 10:32:30;;;;;;;;;;;12.50;81.70;;;;;;5014912;28;20398;-63
2023/06/14 10:35:00;;;;;;;;;;;12.50;82.10;;;;;;5015031;28;19924;-64
2023/06/14 10:37:27;;;;;;;;;;;12.50;83.80;;;;;;5010689;28;20491;-64
2023/06/14 10:39:53;;;;;;;;;;;12.40;83.00;;;;;;5014316;28;20416;-63
2023/06/14 10:42:22;;;;;;;;;;;12.50;83.40;;;;;;5014408;28;19920;-64
2023/06/14 10:44:55;;;;;;;;;;;12.40;83.40;;;;;;5014880;28;20008;-63
2023/06/14 10:47:39;;;;;;;;;;;12.30;83.70;;;;;;5014246;28;20552;-64
2023/06/14 10:50:07;;;;;;;;;;;12.30;84.80;;;;;;4995655;28;19929;-64
2023/06/14 10:52:35;;;;;;;;;;;12.30;84.40;;;;;;4999224;28;19918;-64
2023/06/14 10:55:14;;;;;;;;;;;12.20;85.00;;;;;;5014806;28;19919;-65
2023/06/14 10:57:42;;;;;;;;;;;12.20;84.50;;;;;;5014060;28;19914;-64
2023/06/14 11:00:16;;;;;;;;;;;12.10;85.10;;;;;;5010174;28;19914;-64
2023/06/14 11:02:51;;;;;;;;;;;12.10;85.40;;;;;;4996050;28;19921;-63
2023/06/14 11:05:23;;;;;;;;;;;12.10;85.10;;;;;;5013956;28;20274;-65
2023/06/14 11:08:00;;;;;;;;;;;12.00;85.90;;;;;;4997405;28;19917;-63
2023/06/14 11:10:40;;;;;;;;;;;12.00;85.50;;;;;;5014092;28;20459;-65
2023/06/14 11:13:08;;;;;;;;;;;11.90;85.80;;;;;;5014578;28;19917;-65
2023/06/14 11:15:36;;;;;;;;;;;12.00;85.80;;;;;;5013975;28;19914;-65
2023/06/14 11:18:04;;;;;;;;;;;12.00;86.00;;;;;;5014412;28;20385;-65
2023/06/14 11:20:32;;;;;;;;;;;12.00;86.30;;;;;;5013950;28;19909;-64
2023/06/14 11:22:59;;;;;;;;;;;12.10;86.20;;;;;;5013739;28;19913;-64
2023/06/14 11:25:27;;;;;;;;;;;12.10;86.00;;;;;;5013004;28;19909;-65
2023/06/14 11:27:55;;;;;;;;;;;12.00;86.70;;;;;;5013156;28;20024;-64
2023/06/14 11:30:22;;;;;;;;;;;12.10;86.90;;;;;;5010932;28;19922;-63
2023/06/14 11:32:50;;;;;;;;;;;12.00;87.10;;;;;;5003258;28;20044;-63
2023/06/14 11:35:17;;;;;;;;;;;12.00;87.30;;;;;;5007936;28;19913;-64
2023/06/14 11:37:47;;;;;;;;;;;12.00;87.60;;;;;;5013989;28;20628;-63
2023/06/14 11:40:14;;;;;;;;;;;12.00;87.30;;;;;;5010443;28;19922;-63
2023/06/14 11:42:41;;;;;;;;;;;12.10;87.40;;;;;;5012598;28;20025;-65
2023/06/14 11:45:09;;;;;;;;;;;12.00;87.80;;;;;;5014118;28;19910;-63
2023/06/14 11:47:36;;;;;;;;;;;12.00;88.00;;;;;;5013859;28;20334;-63
2023/06/14 11:50:03;;;;;;;;;;;12.00;88.20;;;;;;5012725;28;20021;-64
2023/06/14 11:52:31;;;;;;;;;;;12.00;88.10;;;;;;5013621;28;19913;-65
2023/06/14 11:54:58;;;;;;;;;;;12.00;88.60;;;;;;5013568;28;19910;-65
2023/06/14 11:57:25;;;;;;;;;;;11.90;88.50;;;;;;5013613;28;19909;-63
2023/06/14 11:59:52;;;;;;;;;;;12.00;88.40;;;;;;5013841;28;19914;-64
2023/06/14 12:02:20;;;;;;;;;;;12.00;88.40;;;;;;5013747;28;19964;-64
2023/06/14 12:04:50;;;;;;;;;;;12.00;90.00;;;;;;5014500;28;20273;-63
2023/06/14 12:07:17;;;;;;;;;;;12.00;89.20;;;;;;5013899;28;19941;-64
2023/06/14 12:09:53;;;;;;;;;;;12.00;89.20;;;;;;4980666;28;19962;-64
2023/06/14 12:12:21;;;;;;;;;;;11.90;89.30;;;;;;4994001;28;19917;-64
2023/06/14 12:14:48;;;;;;;;;;;12.00;89.50;;;;;;4993831;28;20367;-64
2023/06/14 12:17:17;;;;;;;;;;;11.90;89.70;;;;;;5008453;28;19918;-64
2023/06/14 12:19:44;;;;;;;;;;;11.90;90.00;;;;;;5012870;28;19972;-66
2023/06/14 12:22:12;;;;;;;;;;;11.90;90.00;;;;;;5013114;28;19909;-65
2023/06/14 12:24:39;;;;;;;;;;;11.90;90.10;;;;;;5003955;28;19976;-65
2023/06/14 12:27:06;;;;;;;;;;;11.90;90.20;;;;;;5003564;28;19987;-63
2023/06/14 12:29:32;;;;;;;;;;;11.90;90.40;;;;;;5013150;28;20359;-63
2023/06/14 12:31:59;;;;;;;;;;;11.90;90.40;;;;;;5013454;28;19910;-63
2023/06/14 12:34:27;;;;;;;;;;;11.80;90.40;;;;;;5013342;28;19948;-64
2023/06/14 12:36:54;;;;;;;;;;;11.80;90.60;;;;;;5013316;28;20348;-65
2023/06/14 12:39:21;;;;;;;;;;;11.70;90.60;;;;;;5013257;28;19910;-64
2023/06/14 12:41:48;;;;;;;;;;;11.80;90.60;;;;;;5013049;28;19909;-64
2023/06/14 12:44:15;;;;;;;;;;;11.80;90.80;;;;;;5013377;28;19959;-66
2023/06/14 12:46:45;;;;;;;;;;;11.80;90.80;;;;;;5013264;28;19918;-64
2023/06/14 12:49:12;;;;;;;;;;;11.80;90.90;;;;;;5013383;28;19922;-65
2023/06/14 12:51:41;;;;;;;;;;;11.80;90.80;;;;;;5013045;28;20008;-65
2023/06/14 12:54:08;;;;;;;;;;;11.80;90.80;;;;;;5013500;28;19910;-64
2023/06/14 12:56:34;;;;;;;;;;;11.80;90.80;;;;;;5012654;28;19913;-65
2023/06/14 12:59:01;;;;;;;;;;;11.80;90.80;;;;;;5012936;28;19963;-64
2023/06/14 13:01:27;;;;;;;;;;;11.70;90.90;;;;;;5012755;28;20342;-64
2023/06/14 13:03:54;;;;;;;;;;;11.70;91.00;;;;;;5028449;28;20317;-64
2023/06/14 13:06:22;;;;;;;;;;;11.70;91.20;;;;;;5012976;28;19964;-64
2023/06/14 13:08:50;;;;;;;;;;;11.70;91.30;;;;;;5012164;28;19940;-65
2023/06/14 13:11:16;;;;;;;;;;;11.70;91.30;;;;;;5012761;28;20366;-64
2023/06/14 13:13:43;;;;;;;;;;;11.60;91.30;;;;;;5013000;28;20000;-64
2023/06/14 13:16:10;;;;;;;;;;;11.60;91.30;;;;;;5011971;28;20354;-64
2023/06/14 13:18:37;;;;;;;;;;;11.60;91.60;;;;;;5012703;28;20341;-64
2023/06/14 13:21:04;;;;;;;;;;;11.50;91.60;;;;;;5013198;28;19910;-66
2023/06/14 13:23:30;;;;;;;;;;;11.60;91.80;;;;;;5012677;28;19960;-64
2023/06/14 13:25:57;;;;;;;;;;;11.50;91.80;;;;;;5012128;28;19917;-65
2023/06/14 13:28:23;;;;;;;;;;;11.50;92.10;;;;;;5012447;28;19921;-64
2023/06/14 13:30:50;;;;;;;;;;;11.50;92.00;;;;;;5012902;28;20239;-65
2023/06/14 13:33:17;;;;;;;;;;;11.40;91.90;;;;;;5011718;28;20267;-66
2023/06/14 13:35:44;;;;;;;;;;;11.40;92.10;;;;;;5012825;28;19914;-65
2023/06/14 13:38:10;;;;;;;;;;;11.40;92.10;;;;;;5012151;28;19909;-64
2023/06/14 13:40:37;;;;;;;;;;;11.30;92.30;;;;;;5012480;28;19917;-64
2023/06/14 13:43:04;;;;;;;;;;;11.30;92.40;;;;;;5012271;28;19913;-63
2023/06/14 13:45:30;;;;;;;;;;;11.30;92.40;;;;;;5012346;28;19917;-64
2023/06/14 13:47:57;;;;;;;;;;;11.30;92.20;;;;;;5012574;28;19917;-64
2023/06/14 13:50:24;;;;;;;;;;;11.30;92.40;;;;;;5012496;28;19925;-63
2023/06/14 13:52:50;;;;;;;;;;;11.30;92.40;;;;;;5012726;28;20385;-63
2023/06/14 13:55:17;;;;;;;;;;;11.30;92.70;;;;;;5012511;28;19916;-64
2023/06/14 13:57:45;;;;;;;;;;;11.30;92.50;;;;;;5012051;28;20282;-65
2023/06/14 14:00:12;;;;;;;;;;;11.20;92.60;;;;;;5012031;28;19916;-64
2023/06/14 14:02:39;;;;;;;;;;;11.20;92.80;;;;;;5012561;28;20349;-64
2023/06/14 14:05:06;;;;;;;;;;;11.20;92.60;;;;;;5011988;28;19909;-65
2023/06/14 14:07:33;;;;;;;;;;;11.20;92.90;;;;;;5012002;28;19968;-64
2023/06/14 14:09:59;;;;;;;;;;;11.30;92.90;;;;;;5012391;28;20019;-64
2023/06/14 14:12:26;;;;;;;;;;;11.20;93.40;;;;;;4994606;28;19917;-65
2023/06/14 14:14:52;;;;;;;;;;;11.20;93.10;;;;;;5012206;28;19909;-64
2023/06/14 14:17:19;;;;;;;;;;;11.10;92.90;;;;;;5012109;28;20274;-63
2023/06/14 14:19:46;;;;;;;;;;;11.10;93.10;;;;;;5012265;28;19917;-64